Time;durP1;ratioP1;P1;durP2;ratioP2;P2;SDS_P1;SDS_P2;PMS_P1;PMS_P2;Temp;Humidity;BMP_temperature;BMP_pressure;BME280_temperature;BME280_humidity;BME280_pressure;Samples;Min_cycle;Max_cycle;Signal;HPM_P1;HPM_P2
2023/04/02 05:04:33;;;;;;;0.63;0.63;;;9.60;99.90;;;;;;5933812;23;20295;-65
2023/04/02 05:07:12;;;;;;;0.50;0.50;;;9.60;99.90;;;;;;4954836;28;20215;-64
2023/04/02 05:10:23;;;;;;;0.65;0.65;;;9.60;99.90;;;;;;4955069;28;20157;-64
2023/04/02 05:12:58;;;;;;;0.73;0.73;;;9.60;99.90;;;;;;4933763;29;20682;-64
2023/04/02 05:15:29;;;;;;;0.60;0.60;;;9.60;99.90;;;;;;4953054;28;20255;-65
2023/04/02 05:18:40;;;;;;;1.20;0.60;;;9.60;99.90;;;;;;4955305;28;20679;-65
2023/04/02 05:21:21;;;;;;;0.65;0.65;;;9.60;99.90;;;;;;4945956;29;20635;-64
2023/04/02 05:23:56;;;;;;;0.57;0.57;;;9.60;99.90;;;;;;4954361;28;20178;-65
2023/04/02 05:26:32;;;;;;;0.70;0.70;;;9.60;99.90;;;;;;4954700;28;20187;-66
2023/04/02 05:29:33;;;;;;;0.50;0.50;;;9.60;99.90;;;;;;4955018;28;20181;-65
2023/04/02 05:32:23;;;;;;;0.50;0.50;;;9.60;99.90;;;;;;4943569;28;20189;-65
2023/04/02 05:34:53;;;;;;;1.92;0.60;;;9.60;99.90;;;;;;4953240;28;20216;-65
2023/04/02 05:37:23;;;;;;;0.68;0.68;;;9.60;99.90;;;;;;4954722;28;20181;-65
2023/04/02 05:39:59;;;;;;;0.57;0.50;;;9.60;99.90;;;;;;4954965;28;20264;-66
2023/04/02 05:42:30;;;;;;;0.77;0.70;;;9.70;99.90;;;;;;4954724;28;20180;-65
2023/04/02 05:45:31;;;;;;;0.57;0.57;;;9.70;99.90;;;;;;4954518;28;20288;-65
2023/04/02 05:48:01;;;;;;;0.93;0.93;;;9.70;99.90;;;;;;4953933;28;20268;-65
2023/04/02 05:50:32;;;;;;;2.55;1.27;;;9.70;99.90;;;;;;4958086;28;20180;-66
2023/04/02 05:53:07;;;;;;;1.05;0.95;;;9.70;99.90;;;;;;4956600;29;20255;-65
2023/04/02 05:55:57;;;;;;;0.70;0.70;;;9.80;99.90;;;;;;4957915;28;20199;-64
2023/04/02 05:58:54;;;;;;;0.70;0.70;;;9.80;99.90;;;;;;4957053;28;20187;-64
2023/04/02 06:01:41;;;;;;;0.40;0.40;;;9.90;99.90;;;;;;4958326;28;20538;-65
2023/04/02 06:04:14;;;;;;;1.40;0.80;;;9.90;99.90;;;;;;4957610;28;20233;-65
2023/04/02 06:06:42;;;;;;;0.55;0.50;;;9.90;99.90;;;;;;4956490;28;20196;-65
2023/04/02 06:09:33;;;;;;;0.85;0.85;;;10.00;99.90;;;;;;4957729;28;20165;-65
2023/04/02 06:12:34;;;;;;;1.20;1.10;;;10.10;99.90;;;;;;4957927;28;20208;-65
2023/04/02 06:15:00;;;;;;;0.70;0.70;;;10.00;99.90;;;;;;4957091;28;20578;-67
2023/04/02 06:17:26;;;;;;;1.27;0.83;;;10.10;99.90;;;;;;4956431;29;20176;-65
2023/04/02 06:19:56;;;;;;;0.80;0.80;;;10.10;99.90;;;;;;4955044;28;20181;-64
2023/04/02 06:22:30;;;;;;;1.30;1.20;;;10.20;99.90;;;;;;4957645;28;20169;-65
2023/04/02 06:25:18;;;;;;;0.80;0.80;;;10.20;99.90;;;;;;4946700;28;20592;-65
2023/04/02 06:27:45;;;;;;;0.70;0.70;;;10.30;99.90;;;;;;4946058;29;20187;-65
2023/04/02 06:30:23;;;;;;;0.43;0.43;;;10.30;99.90;;;;;;4956195;28;20651;-65
2023/04/02 06:32:49;;;;;;;0.63;0.63;;;10.30;99.90;;;;;;4957646;28;20196;-65
2023/04/02 06:35:15;;;;;;;0.80;0.80;;;10.30;99.90;;;;;;4956864;28;20197;-65
2023/04/02 06:37:45;;;;;;;0.50;0.50;;;10.30;99.90;;;;;;4944530;28;20185;-65
2023/04/02 06:40:30;;;;;;;0.70;0.70;;;10.30;99.90;;;;;;4938743;29;20528;-65
2023/04/02 06:42:58;;;;;;;0.85;0.85;;;10.30;99.90;;;;;;4938057;29;20175;-65
2023/04/02 06:45:29;;;;;;;0.75;0.75;;;10.30;99.90;;;;;;4944066;29;20205;-63
2023/04/02 06:47:58;;;;;;;0.75;0.75;;;10.30;99.90;;;;;;4952850;28;20254;-63
2023/04/02 06:50:34;;;;;;;0.70;0.52;;;10.40;99.90;;;;;;4955665;29;20581;-64
2023/04/02 06:53:08;;;;;;;1.48;0.70;;;10.40;99.90;;;;;;4938767;28;20668;-65
2023/04/02 06:55:57;;;;;;;0.80;0.80;;;10.40;99.90;;;;;;4937772;29;20206;-65
2023/04/02 06:58:23;;;;;;;0.60;0.60;;;10.50;99.90;;;;;;4937671;29;20224;-65
2023/04/02 07:00:50;;;;;;;0.87;0.63;;;10.60;99.90;;;;;;4937023;29;20591;-65
2023/04/02 07:03:22;;;;;;;0.50;0.50;;;10.60;99.90;;;;;;4939791;29;20532;-67
2023/04/02 07:05:47;;;;;;;0.45;0.45;;;10.70;99.90;;;;;;4956615;28;20316;-66
2023/04/02 07:08:13;;;;;;;0.50;0.50;;;10.70;99.90;;;;;;4956734;28;20255;-66
2023/04/02 07:10:39;;;;;;;0.80;0.80;;;10.70;99.90;;;;;;4956621;28;20192;-68
2023/04/02 07:13:04;;;;;;;0.77;0.77;;;10.70;99.90;;;;;;4950426;28;20232;-64
2023/04/02 07:15:30;;;;;;;0.80;0.80;;;10.70;99.90;;;;;;4942771;28;20196;-64
2023/04/02 07:17:58;;;;;;;0.90;0.90;;;10.70;99.90;;;;;;4935921;29;20174;-64
2023/04/02 07:20:29;;;;;;;0.55;0.55;;;10.80;99.90;;;;;;4950395;28;20182;-63
2023/04/02 07:22:55;;;;;;;0.70;0.50;;;10.90;99.90;;;;;;4956404;28;20511;-65
2023/04/02 07:25:22;;;;;;;1.13;0.95;;;10.90;99.90;;;;;;4955893;28;20281;-66
2023/04/02 07:27:48;;;;;;;0.77;0.77;;;11.00;99.90;;;;;;4956106;28;20173;-65
2023/04/02 07:30:15;;;;;;;0.60;0.60;;;10.90;99.90;;;;;;4956536;28;20184;-64
2023/04/02 07:32:41;;;;;;;0.60;0.60;;;11.00;99.90;;;;;;4954794;28;20220;-63
2023/04/02 07:35:08;;;;;;;0.70;0.70;;;11.10;99.90;;;;;;4954526;28;20596;-66
2023/04/02 07:37:34;;;;;;;0.90;0.90;;;11.10;99.90;;;;;;4955957;28;20199;-64
2023/04/02 07:40:00;;;;;;;1.53;0.80;;;11.20;99.90;;;;;;4951623;28;20259;-64
2023/04/02 07:42:26;;;;;;;0.50;0.50;;;11.30;99.90;;;;;;4933971;29;21134;-65
2023/04/02 07:44:51;;;;;;;0.70;0.70;;;11.30;99.90;;;;;;4933643;29;20620;-69
2023/04/02 07:47:17;;;;;;;0.93;0.60;;;11.40;99.90;;;;;;4936062;29;20189;-64
2023/04/02 07:49:43;;;;;;;0.70;0.60;;;11.60;99.90;;;;;;4936537;29;20708;-66
2023/04/02 07:52:08;;;;;;;1.47;0.70;;;11.60;99.90;;;;;;4936460;29;20204;-64
2023/04/02 07:54:34;;;;;;;1.00;0.90;;;11.60;99.90;;;;;;4935926;29;20702;-67
2023/04/02 07:57:00;;;;;;;0.80;0.80;;;11.70;99.90;;;;;;4936638;29;20202;-72
2023/04/02 07:59:25;;;;;;;1.00;1.00;;;11.60;99.90;;;;;;4936338;29;20446;-68
2023/04/02 08:01:52;;;;;;;0.60;0.60;;;11.70;99.90;;;;;;4951361;29;20235;-63
2023/04/02 08:04:20;;;;;;;1.07;1.00;;;11.70;99.90;;;;;;4954993;28;20209;-65
2023/04/02 08:06:47;;;;;;;1.67;1.10;;;11.80;99.90;;;;;;4955457;28;20436;-65
2023/04/02 08:09:14;;;;;;;0.67;0.67;;;11.80;99.90;;;;;;4955552;28;20246;-65
2023/04/02 08:11:41;;;;;;;0.70;0.70;;;11.80;99.90;;;;;;4955009;28;20422;-65
2023/04/02 08:14:07;;;;;;;0.60;0.60;;;11.80;99.90;;;;;;4954141;28;20562;-66
2023/04/02 08:16:46;;;;;;;1.90;0.97;;;11.70;99.90;;;;;;4954460;28;20407;-65
2023/04/02 08:19:12;;;;;;;3.33;2.03;;;11.70;99.90;;;;;;4937003;29;20785;-65
2023/04/02 08:21:38;;;;;;;1.93;0.93;;;11.60;99.90;;;;;;4954371;28;20411;-66
2023/04/02 08:24:03;;;;;;;1.43;1.10;;;11.50;99.90;;;;;;4953958;28;20727;-65
2023/04/02 08:26:29;;;;;;;0.87;0.87;;;11.40;99.90;;;;;;4954438;28;20170;-65
2023/04/02 08:28:55;;;;;;;0.60;0.60;;;11.50;99.90;;;;;;4953622;29;20178;-65
2023/04/02 08:31:22;;;;;;;0.90;0.90;;;11.60;99.90;;;;;;4955523;28;20905;-65
2023/04/02 08:33:47;;;;;;;0.80;0.80;;;11.50;99.90;;;;;;4954923;28;20293;-65
2023/04/02 08:36:18;;;;;;;0.70;0.70;;;11.50;99.90;;;;;;4955328;28;20502;-65
2023/04/02 08:38:44;;;;;;;0.63;0.63;;;11.50;99.90;;;;;;4955288;28;20178;-66
2023/04/02 08:41:23;;;;;;;0.70;0.70;;;11.60;99.90;;;;;;4955192;28;20494;-65
2023/04/02 08:44:07;;;;;;;0.83;0.80;;;11.70;99.90;;;;;;4954980;28;20777;-66
2023/04/02 08:46:45;;;;;;;1.27;1.17;;;11.70;99.90;;;;;;4953984;28;20833;-66
2023/04/02 08:49:21;;;;;;;1.00;0.77;;;11.70;99.90;;;;;;4954162;29;20421;-65
2023/04/02 08:51:47;;;;;;;1.70;0.93;;;11.70;99.90;;;;;;4955211;28;20419;-65
2023/04/02 08:54:31;;;;;;;0.83;0.83;;;11.70;99.90;;;;;;4954681;28;20477;-65
2023/04/02 08:57:45;;;;;;;0.60;0.60;;;11.60;99.90;;;;;;4955309;28;20299;-66
2023/04/02 09:00:38;;;;;;;0.70;0.60;;;11.60;99.90;;;;;;4939215;28;20935;-66
2023/04/02 09:03:33;;;;;;;0.87;0.87;;;11.50;99.90;;;;;;4954893;28;20441;-66
2023/04/02 09:06:02;;;;;;;0.70;0.70;;;11.50;99.90;;;;;;4955128;28;20449;-65
2023/04/02 09:08:30;;;;;;;0.80;0.80;;;11.50;99.90;;;;;;4955360;28;20233;-65
2023/04/02 09:11:17;;;;;;;0.70;0.70;;;11.50;99.90;;;;;;4954513;28;20413;-66
2023/04/02 09:13:46;;;;;;;1.63;1.53;;;11.50;99.90;;;;;;4954416;28;20449;-65
2023/04/02 09:16:21;;;;;;;0.60;0.57;;;11.70;99.90;;;;;;4955405;28;20420;-65
2023/04/02 09:18:48;;;;;;;0.80;0.70;;;11.80;99.90;;;;;;4955591;28;20497;-65
2023/04/02 09:21:27;;;;;;;0.50;0.50;;;11.90;99.90;;;;;;4955313;28;20404;-66
2023/04/02 09:23:52;;;;;;;0.60;0.60;;;12.10;99.90;;;;;;4956564;28;20402;-66
2023/04/02 09:26:25;;;;;;;0.70;0.70;;;12.20;99.90;;;;;;4958633;28;20795;-66
2023/04/02 09:28:54;;;;;;;1.20;1.10;;;12.30;99.90;;;;;;4958507;28;20424;-66
2023/04/02 09:31:29;;;;;;;0.90;0.90;;;12.40;99.90;;;;;;4958790;28;20825;-68
2023/04/02 09:33:55;;;;;;;0.87;0.87;;;12.50;99.90;;;;;;4958889;28;20821;-67
2023/04/02 09:36:38;;;;;;;0.80;0.80;;;12.80;99.90;;;;;;4959111;28;20496;-67
2023/04/02 09:39:15;;;;;;;1.13;0.80;;;13.00;99.90;;;;;;4958819;28;20180;-68
2023/04/02 09:41:41;;;;;;;0.93;0.90;;;13.00;99.90;;;;;;4958730;28;20404;-67
2023/04/02 09:44:18;;;;;;;1.30;0.93;;;13.20;99.90;;;;;;4958094;28;20968;-67
2023/04/02 09:46:49;;;;;;;0.67;0.67;;;13.40;99.90;;;;;;4958338;28;20423;-66
2023/04/02 09:49:17;;;;;;;0.73;0.73;;;13.60;99.90;;;;;;4958295;28;20422;-66
2023/04/02 09:51:42;;;;;;;0.60;0.60;;;13.90;99.90;;;;;;4958544;28;20850;-66
2023/04/02 09:54:15;;;;;;;0.87;0.87;;;14.10;99.90;;;;;;4957942;28;20468;-66
2023/04/02 09:57:02;;;;;;;1.47;1.10;;;14.20;99.90;;;;;;4958197;28;20181;-66
2023/04/02 09:59:28;;;;;;;1.37;1.27;;;14.20;99.90;;;;;;4958222;28;20509;-66
2023/04/02 10:01:54;;;;;;;0.83;0.70;;;14.40;99.90;;;;;;4957925;28;20493;-66
2023/04/02 10:04:47;;;;;;;0.70;0.70;;;14.40;99.90;;;;;;4957688;28;20541;-67
2023/04/02 10:07:35;;;;;;;0.67;0.67;;;14.50;99.90;;;;;;4957971;28;20186;-66
2023/04/02 10:10:15;;;;;;;1.37;1.27;;;14.50;99.90;;;;;;4957922;28;20491;-67
2023/04/02 10:12:44;;;;;;;0.80;0.80;;;14.50;99.90;;;;;;4957812;28;20489;-66
2023/04/02 10:15:21;;;;;;;0.60;0.60;;;14.40;99.90;;;;;;4957531;28;20462;-67
2023/04/02 10:17:59;;;;;;;1.00;0.87;;;14.50;99.90;;;;;;4957638;28;20456;-67
2023/04/02 10:20:26;;;;;;;0.60;0.60;;;14.80;99.90;;;;;;4957845;28;20432;-66
2023/04/02 10:22:52;;;;;;;0.80;0.80;;;15.00;99.90;;;;;;4957679;28;20422;-66
2023/04/02 10:25:22;;;;;;;1.00;1.00;;;15.10;99.90;;;;;;4957366;28;20428;-66
2023/04/02 10:28:03;;;;;;;0.60;0.60;;;15.10;99.90;;;;;;4957539;28;20168;-66
2023/04/02 10:30:40;;;;;;;0.57;0.57;;;15.00;99.90;;;;;;4957490;28;20423;-66
2023/04/02 10:33:18;;;;;;;0.70;0.70;;;15.10;99.90;;;;;;4957047;28;20421;-66
2023/04/02 10:36:10;;;;;;;1.37;0.80;;;15.20;99.90;;;;;;4956265;28;20490;-66
2023/04/02 10:38:43;;;;;;;0.70;0.70;;;15.30;99.90;;;;;;4957596;28;20450;-66
2023/04/02 10:41:16;;;;;;;0.77;0.50;;;15.00;99.90;;;;;;4957514;28;20501;-66
2023/04/02 10:44:12;;;;;;;0.67;0.67;;;14.80;99.90;;;;;;4957123;28;20469;-66
2023/04/02 10:46:56;;;;;;;0.83;0.83;;;14.60;99.90;;;;;;4957104;28;20418;-66
2023/04/02 10:49:35;;;;;;;0.60;0.60;;;14.50;99.90;;;;;;4957371;28;20788;-67
2023/04/02 10:52:20;;;;;;;2.20;2.00;;;14.60;99.90;;;;;;4957301;28;20398;-65
2023/04/02 10:54:51;;;;;;;1.30;1.20;;;15.00;99.90;;;;;;4956894;28;20803;-66
2023/04/02 10:57:38;;;;;;;0.50;0.50;;;15.20;99.90;;;;;;4955828;28;20416;-66
2023/04/02 11:00:10;;;;;;;0.40;0.40;;;15.30;99.90;;;;;;4957153;28;20383;-66
2023/04/02 11:02:54;;;;;;;0.70;0.70;;;15.30;99.90;;;;;;4956842;28;20383;-66
2023/04/02 11:05:48;;;;;;;0.50;0.50;;;15.20;99.90;;;;;;4956548;28;20837;-66
2023/04/02 11:08:28;;;;;;;1.37;0.83;;;15.30;99.90;;;;;;4955570;28;20414;-66
2023/04/02 11:11:06;;;;;;;1.43;0.80;;;15.40;99.90;;;;;;4956845;28;20405;-66
2023/04/02 11:13:42;;;;;;;0.70;0.70;;;15.50;99.90;;;;;;4956352;28;20452;-66
2023/04/02 11:16:13;;;;;;;0.80;0.80;;;15.50;99.90;;;;;;4956666;28;20905;-66
2023/04/02 11:18:39;;;;;;;0.50;0.50;;;15.30;99.90;;;;;;4956705;28;20389;-65
2023/04/02 11:21:26;;;;;;;0.50;0.50;;;15.30;99.90;;;;;;4955267;29;20748;-67
2023/04/02 11:24:02;;;;;;;0.80;0.80;;;15.20;99.90;;;;;;4945394;28;20442;-66
2023/04/02 11:26:36;;;;;;;0.50;0.50;;;14.80;99.90;;;;;;4956491;28;20410;-66
2023/04/02 11:29:33;;;;;;;0.60;0.50;;;14.60;99.90;;;;;;4956681;28;20429;-65
2023/04/02 11:32:26;;;;;;;0.70;0.50;;;14.60;99.90;;;;;;4956621;28;20793;-67
2023/04/02 11:34:54;;;;;;;0.50;0.47;;;14.40;99.90;;;;;;4956315;28;20435;-65
2023/04/02 11:37:43;;;;;;;0.53;0.50;;;14.50;99.90;;;;;;4955428;28;20418;-67
2023/04/02 11:40:15;;;;;;;0.50;0.50;;;14.40;99.90;;;;;;4955199;29;20449;-66
2023/04/02 11:42:46;;;;;;;1.10;0.60;;;14.30;99.90;;;;;;4955091;28;20412;-66
2023/04/02 11:45:29;;;;;;;0.80;0.80;;;14.20;99.90;;;;;;4956094;28;20444;-66
2023/04/02 11:48:20;;;;;;;0.60;0.60;;;14.10;99.90;;;;;;4956250;28;20409;-65
2023/04/02 11:50:46;;;;;;;1.13;0.60;;;14.10;99.90;;;;;;4955993;29;20428;-66
2023/04/02 11:53:15;;;;;;;0.47;0.47;;;14.00;99.90;;;;;;4954529;29;20456;-66
2023/04/02 11:55:42;;;;;;;0.53;0.53;;;14.00;99.90;;;;;;4956107;28;20464;-66
2023/04/02 11:58:35;;;;;;;0.60;0.60;;;14.00;99.90;;;;;;4956241;28;20416;-65
2023/04/02 12:01:28;;;;;;;0.50;0.50;;;14.00;99.90;;;;;;4956110;28;20767;-67
2023/04/02 12:04:22;;;;;;;0.60;0.60;;;14.00;99.90;;;;;;4955805;28;20907;-64
2023/04/02 12:06:50;;;;;;;0.77;0.77;;;14.00;99.90;;;;;;4955727;28;20956;-65
2023/04/02 12:09:22;;;;;;;0.83;0.70;;;14.00;99.90;;;;;;4955777;28;20496;-65
2023/04/02 12:11:50;;;;;;;0.70;0.70;;;14.00;99.90;;;;;;4955800;28;20408;-65
2023/04/02 12:14:53;;;;;;;0.57;0.57;;;14.00;99.90;;;;;;4955451;28;20463;-66
2023/04/02 12:17:29;;;;;;;0.70;0.70;;;14.00;99.90;;;;;;4955453;28;20420;-65
2023/04/02 12:20:01;;;;;;;0.50;0.50;;;13.90;99.90;;;;;;4955470;28;20422;-66
2023/04/02 12:22:30;;;;;;;0.90;0.70;;;13.90;99.90;;;;;;4956019;28;20432;-66
2023/04/02 12:25:02;;;;;;;0.67;0.67;;;14.00;99.90;;;;;;4955088;28;20433;-66
2023/04/02 12:27:29;;;;;;;0.90;0.80;;;14.10;99.90;;;;;;4955407;28;20514;-66
2023/04/02 12:30:10;;;;;;;0.50;0.50;;;14.10;99.90;;;;;;4955611;28;20404;-66
2023/04/02 12:32:36;;;;;;;0.60;0.60;;;14.10;99.90;;;;;;4955320;28;20499;-65
2023/04/02 12:35:03;;;;;;;0.83;0.83;;;14.20;99.90;;;;;;4954988;28;20502;-66
2023/04/02 12:37:29;;;;;;;0.70;0.70;;;14.20;99.90;;;;;;4954182;29;20639;-66
2023/04/02 12:40:05;;;;;;;0.87;0.80;;;14.30;99.90;;;;;;4955243;28;20420;-66
2023/04/02 12:42:35;;;;;;;0.57;0.57;;;14.30;99.90;;;;;;4955304;28;20459;-66
2023/04/02 12:45:03;;;;;;;1.23;1.13;;;14.10;99.90;;;;;;4954885;28;20467;-66
2023/04/02 12:47:29;;;;;;;0.90;0.90;;;13.90;99.90;;;;;;4955297;28;20419;-65
2023/04/02 12:49:57;;;;;;;1.20;1.20;;;13.70;99.90;;;;;;4955362;28;20451;-67
2023/04/02 12:52:27;;;;;;;0.93;0.90;;;13.50;99.90;;;;;;4955282;28;20416;-67
2023/04/02 12:54:59;;;;;;;0.80;0.80;;;13.40;99.90;;;;;;4954576;28;20467;-66
2023/04/02 12:57:24;;;;;;;0.97;0.97;;;13.20;99.90;;;;;;4955223;28;20435;-66
2023/04/02 12:59:56;;;;;;;1.70;1.10;;;13.10;99.90;;;;;;4959055;28;20405;-65
2023/04/02 13:02:31;;;;;;;0.83;0.83;;;12.90;99.90;;;;;;4959106;28;20574;-66
2023/04/02 13:05:02;;;;;;;0.97;0.97;;;12.80;99.90;;;;;;4958633;28;20791;-66
2023/04/02 13:07:31;;;;;;;2.17;0.73;;;12.70;99.90;;;;;;4959003;28;20418;-64
2023/04/02 13:09:59;;;;;;;0.83;0.70;;;12.50;99.90;;;;;;4958856;28;20417;-66
2023/04/02 13:12:35;;;;;;;1.00;1.00;;;12.50;99.90;;;;;;4959045;28;20418;-66
2023/04/02 13:15:04;;;;;;;0.97;0.97;;;12.40;99.90;;;;;;4958549;28;20473;-65
2023/04/02 13:17:42;;;;;;;1.10;1.10;;;12.40;99.90;;;;;;4958798;28;20889;-65
2023/04/02 13:20:41;;;;;;;1.10;1.10;;;12.40;99.90;;;;;;4957844;29;20972;-65
2023/04/02 13:23:28;;;;;;;1.27;1.03;;;12.50;99.90;;;;;;4946789;28;20427;-65
2023/04/02 13:26:08;;;;;;;1.57;0.90;;;12.50;99.90;;;;;;4958633;28;20421;-66
2023/04/02 13:28:34;;;;;;;0.90;0.90;;;12.50;99.90;;;;;;4958865;29;20414;-64
2023/04/02 13:31:00;;;;;;;0.90;0.90;;;12.60;99.90;;;;;;4958805;28;20407;-64
2023/04/02 13:33:26;;;;;;;1.20;1.10;;;12.70;99.90;;;;;;4956976;28;20262;-65
2023/04/02 13:35:51;;;;;;;0.97;0.97;;;12.70;99.90;;;;;;4958340;28;20434;-66
2023/04/02 13:38:17;;;;;;;1.10;1.10;;;12.70;99.90;;;;;;4958722;28;20416;-67
2023/04/02 13:40:43;;;;;;;1.10;1.10;;;12.70;99.90;;;;;;4958315;28;20195;-66
2023/04/02 13:43:16;;;;;;;2.07;1.50;;;12.80;99.90;;;;;;4958127;28;20172;-66
2023/04/02 13:45:42;;;;;;;0.70;0.70;;;12.80;99.90;;;;;;4958377;28;20214;-66
2023/04/02 13:48:13;;;;;;;1.10;1.10;;;12.80;99.90;;;;;;4958214;28;20430;-65
2023/04/02 13:50:39;;;;;;;1.20;1.20;;;12.70;99.90;;;;;;4958405;28;20445;-64
2023/04/02 13:53:08;;;;;;;1.10;1.10;;;12.60;99.90;;;;;;4957778;28;20546;-66
2023/04/02 13:55:37;;;;;;;1.30;1.30;;;12.50;99.90;;;;;;4957830;28;20443;-67
2023/04/02 13:58:04;;;;;;;0.97;0.97;;;12.50;99.90;;;;;;4958092;28;20413;-65
2023/04/02 14:00:31;;;;;;;1.07;1.07;;;12.40;99.90;;;;;;4957784;28;20421;-65
2023/04/02 14:03:08;;;;;;;0.97;0.97;;;12.30;99.90;;;;;;4957889;28;20785;-67
2023/04/02 14:06:02;;;;;;;1.23;1.13;;;12.20;99.90;;;;;;4957532;28;20509;-64
2023/04/02 14:08:47;;;;;;;1.13;1.03;;;12.10;99.90;;;;;;4957862;28;20764;-66
2023/04/02 14:11:26;;;;;;;1.17;1.07;;;12.00;99.90;;;;;;4958104;28;20374;-65
2023/04/02 14:14:16;;;;;;;0.70;0.70;;;12.00;99.90;;;;;;4957352;28;20494;-65
2023/04/02 14:16:50;;;;;;;1.13;1.13;;;12.00;99.90;;;;;;4957769;28;20411;-65
2023/04/02 14:19:21;;;;;;;1.00;1.00;;;12.00;99.90;;;;;;4957772;28;20430;-65
2023/04/02 14:21:58;;;;;;;0.80;0.80;;;11.80;99.90;;;;;;4957806;28;20401;-65
2023/04/02 14:24:55;;;;;;;0.90;0.90;;;11.60;99.90;;;;;;4957131;28;20192;-65
2023/04/02 14:27:44;;;;;;;0.80;0.80;;;11.40;99.90;;;;;;4957579;28;20949;-65
2023/04/02 14:30:30;;;;;;;0.75;0.75;;;11.20;99.90;;;;;;4957381;28;20182;-65
2023/04/02 14:33:15;;;;;;;1.15;1.13;;;11.10;99.90;;;;;;4957414;28;20575;-65
2023/04/02 14:35:47;;;;;;;1.40;1.23;;;11.00;99.90;;;;;;4957391;28;20197;-65
2023/04/02 14:38:25;;;;;;;1.13;1.13;;;11.00;99.90;;;;;;4956032;28;20749;-65
2023/04/02 14:41:06;;;;;;;1.00;0.90;;;10.90;99.90;;;;;;4957379;28;20210;-65
2023/04/02 14:43:37;;;;;;;1.20;1.10;;;10.90;99.90;;;;;;4957556;28;20204;-66
2023/04/02 14:46:05;;;;;;;0.93;0.93;;;10.90;99.90;;;;;;4957076;28;20679;-65
2023/04/02 14:48:50;;;;;;;0.95;0.95;;;10.90;99.90;;;;;;4957214;28;20209;-66
2023/04/02 14:51:36;;;;;;;0.93;0.93;;;10.80;99.90;;;;;;4957174;28;20260;-67
2023/04/02 14:54:34;;;;;;;0.73;0.73;;;10.70;99.90;;;;;;4956691;28;20597;-65
2023/04/02 14:57:20;;;;;;;0.60;0.60;;;10.70;99.90;;;;;;4952855;29;20245;-65
2023/04/02 15:00:09;;;;;;;1.30;1.20;;;10.80;99.90;;;;;;4956963;28;20194;-65
2023/04/02 15:02:53;;;;;;;1.00;0.98;;;10.70;99.90;;;;;;4957113;28;20188;-65
2023/04/02 15:05:48;;;;;;;1.00;1.00;;;10.60;99.90;;;;;;4956368;28;20204;-64
2023/04/02 15:08:26;;;;;;;1.00;1.00;;;10.40;99.90;;;;;;4956715;28;20185;-64
2023/04/02 15:10:55;;;;;;;1.10;1.10;;;10.10;99.90;;;;;;4956590;28;20285;-65
2023/04/02 15:13:41;;;;;;;1.10;1.10;;;9.90;99.90;;;;;;4956252;28;20247;-65
2023/04/02 15:16:17;;;;;;;1.08;0.98;;;9.80;99.90;;;;;;4956634;28;20204;-67
2023/04/02 15:18:43;;;;;;;1.20;1.20;;;9.70;99.90;;;;;;4956547;28;20172;-66
2023/04/02 15:21:18;;;;;;;0.70;0.70;;;9.60;99.90;;;;;;4956097;28;20188;-66
2023/04/02 15:24:00;;;;;;;1.65;1.55;;;9.50;99.90;;;;;;4956170;28;20255;-66
2023/04/02 15:26:53;;;;;;;1.50;1.30;;;9.40;99.90;;;;;;4956740;28;20185;-66
2023/04/02 15:29:53;;;;;;;1.20;1.08;;;9.30;99.90;;;;;;4956527;28;20516;-65
2023/04/02 15:32:34;;;;;;;2.47;1.40;;;9.30;99.90;;;;;;4956324;28;20547;-65
2023/04/02 15:35:35;;;;;;;1.15;1.13;;;9.10;99.90;;;;;;4955909;28;20250;-66
2023/04/02 15:38:15;;;;;;;1.20;1.10;;;9.00;99.90;;;;;;4956309;28;20169;-65
2023/04/02 15:41:05;;;;;;;1.48;1.40;;;8.90;99.90;;;;;;4956175;28;20188;-64
2023/04/02 15:43:37;;;;;;;1.23;1.13;;;8.80;99.90;;;;;;4955893;28;20181;-65
2023/04/02 15:46:34;;;;;;;1.20;1.20;;;8.80;99.90;;;;;;4955969;28;20200;-65
2023/04/02 15:49:08;;;;;;;0.65;0.65;;;8.70;99.90;;;;;;4956252;28;20646;-64
2023/04/02 15:51:47;;;;;;;1.10;1.00;;;8.70;99.90;;;;;;4955560;28;20245;-64
2023/04/02 15:54:35;;;;;;;1.10;1.10;;;8.70;99.90;;;;;;4954206;28;20219;-64
2023/04/02 15:57:33;;;;;;;1.23;1.13;;;8.70;99.90;;;;;;4955973;28;20275;-64
2023/04/02 16:00:25;;;;;;;1.50;1.40;;;8.70;99.90;;;;;;4955827;28;20549;-65
2023/04/02 16:03:22;;;;;;;1.50;1.40;;;8.70;99.90;;;;;;4956007;28;20259;-64
2023/04/02 16:06:15;;;;;;;1.70;1.13;;;8.80;99.90;;;;;;4955677;28;20240;-63
2023/04/02 16:08:55;;;;;;;1.15;1.15;;;8.80;99.90;;;;;;4955705;28;20173;-65
2023/04/02 16:11:22;;;;;;;1.30;1.23;;;8.80;99.90;;;;;;4955826;28;20172;-65
2023/04/02 16:13:48;;;;;;;1.80;1.20;;;8.80;99.90;;;;;;4955040;28;20204;-64
2023/04/02 16:16:25;;;;;;;1.70;1.60;;;8.90;99.90;;;;;;4955650;28;20175;-60
2023/04/02 16:18:54;;;;;;;1.42;1.33;;;8.90;99.90;;;;;;4954572;29;20172;-54
2023/04/02 16:21:31;;;;;;;2.05;1.95;;;8.80;99.90;;;;;;4955380;28;20168;-67
2023/04/02 16:23:57;;;;;;;1.42;1.33;;;8.80;99.90;;;;;;4954959;28;20184;-74
2023/04/02 16:26:33;;;;;;;1.10;1.10;;;8.80;99.90;;;;;;4955213;28;20165;-65
2023/04/02 16:29:16;;;;;;;1.65;1.55;;;8.70;99.90;;;;;;4955334;28;20180;-66
2023/04/02 16:31:47;;;;;;;1.50;1.40;;;8.70;99.90;;;;;;4955412;28;20181;-66
2023/04/02 16:34:28;;;;;;;1.60;1.50;;;8.70;99.90;;;;;;4954805;28;20212;-66
2023/04/02 16:36:59;;;;;;;1.63;1.52;;;8.70;99.90;;;;;;4955413;28;20170;-66
2023/04/02 16:39:32;;;;;;;1.70;1.60;;;8.80;99.90;;;;;;4955309;28;20180;-63
2023/04/02 16:42:09;;;;;;;1.42;1.33;;;8.80;99.90;;;;;;4955118;28;20184;-62
2023/04/02 16:44:58;;;;;;;1.50;1.40;;;8.70;99.90;;;;;;4954950;28;20222;-63
2023/04/02 16:47:54;;;;;;;1.65;1.55;;;8.60;99.90;;;;;;4944599;28;20184;-63
2023/04/02 16:50:38;;;;;;;1.55;1.45;;;8.60;99.90;;;;;;4955080;28;20297;-61
2023/04/02 16:53:29;;;;;;;1.30;1.30;;;8.60;99.90;;;;;;4954878;28;20180;-60
2023/04/02 16:56:13;;;;;;;1.10;1.10;;;8.60;99.90;;;;;;4955184;28;20223;-62
2023/04/02 16:59:13;;;;;;;1.45;1.35;;;8.60;99.90;;;;;;4955024;28;20183;-62
2023/04/02 17:01:58;;;;;;;1.70;1.60;;;8.50;99.90;;;;;;4947162;28;20185;-62
2023/04/02 17:04:48;;;;;;;1.90;1.80;;;8.50;99.90;;;;;;4954672;28;20196;-62
2023/04/02 17:07:27;;;;;;;1.85;1.40;;;8.50;99.90;;;;;;4954782;28;20200;-66
2023/04/02 17:10:17;;;;;;;1.50;1.40;;;8.40;99.90;;;;;;4955159;28;20176;-65
2023/04/02 17:12:51;;;;;;;1.63;1.52;;;8.30;99.90;;;;;;4954754;28;20191;-65
2023/04/02 17:15:23;;;;;;;1.60;1.50;;;8.30;99.90;;;;;;4953739;28;20209;-64
2023/04/02 17:17:48;;;;;;;1.70;1.60;;;8.30;99.90;;;;;;4954906;28;20180;-64
2023/04/02 17:20:22;;;;;;;1.60;1.50;;;8.20;99.90;;;;;;4955025;28;20202;-64
2023/04/02 17:22:48;;;;;;;1.48;1.38;;;8.20;99.90;;;;;;4954360;28;20176;-66
2023/04/02 17:25:27;;;;;;;1.40;1.30;;;8.20;99.90;;;;;;4953546;28;20685;-66
2023/04/02 17:27:54;;;;;;;1.63;1.45;;;8.20;99.90;;;;;;4954460;28;20187;-66
2023/04/02 17:30:32;;;;;;;1.15;1.15;;;8.10;99.90;;;;;;4954755;28;20271;-65
2023/04/02 17:32:58;;;;;;;1.60;1.50;;;8.00;99.90;;;;;;4954846;28;20180;-65
2023/04/02 17:35:32;;;;;;;1.57;1.47;;;8.00;99.90;;;;;;4954374;28;20774;-64
2023/04/02 17:38:38;;;;;;;1.50;1.40;;;7.90;99.90;;;;;;4954942;28;20586;-64
2023/04/02 17:41:20;;;;;;;1.70;1.60;;;7.90;99.90;;;;;;4947487;29;20217;-61
2023/04/02 17:44:25;;;;;;;1.50;1.40;;;7.80;99.90;;;;;;4954466;28;20227;-61
2023/04/02 17:47:03;;;;;;;2.63;2.42;;;7.70;99.90;;;;;;4957951;28;20582;-63
2023/04/02 17:50:06;;;;;;;2.05;1.85;;;7.60;99.90;;;;;;4958173;28;20268;-61
2023/04/02 17:52:52;;;;;;;2.13;1.80;;;7.60;99.90;;;;;;4958019;28;20631;-65
2023/04/02 17:55:26;;;;;;;2.35;1.90;;;7.50;99.90;;;;;;4957087;28;20579;-64
2023/04/02 17:58:01;;;;;;;2.60;2.40;;;7.50;99.90;;;;;;4957698;28;20207;-65
2023/04/02 18:00:56;;;;;;;2.10;1.88;;;7.40;99.90;;;;;;4957901;28;20175;-63
2023/04/02 18:03:44;;;;;;;2.65;2.45;;;7.40;99.90;;;;;;4957361;28;20856;-63
2023/04/02 18:06:50;;;;;;;1.98;1.80;;;7.40;99.90;;;;;;4938735;29;20269;-62
2023/04/02 18:09:30;;;;;;;1.67;1.58;;;7.40;99.90;;;;;;4949575;29;20237;-64
2023/04/02 18:12:07;;;;;;;2.25;2.08;;;7.30;99.90;;;;;;4945847;29;20223;-62
2023/04/02 18:14:54;;;;;;;2.55;2.35;;;7.30;99.90;;;;;;4947340;29;20208;-61
2023/04/02 18:17:57;;;;;;;2.53;2.33;;;7.20;99.90;;;;;;4941182;29;20539;-64
2023/04/02 18:20:47;;;;;;;2.80;2.60;;;7.20;99.90;;;;;;4943650;29;20271;-61
2023/04/02 18:23:34;;;;;;;1.92;1.80;;;7.10;99.90;;;;;;4940082;29;20181;-63
2023/04/02 18:26:22;;;;;;;3.10;2.10;;;7.00;99.90;;;;;;4947197;29;20195;-62
2023/04/02 18:28:54;;;;;;;2.33;2.15;;;7.00;99.90;;;;;;4951241;29;20184;-62
2023/04/02 18:31:41;;;;;;;3.95;3.15;;;7.00;99.90;;;;;;4957394;28;20173;-61
2023/04/02 18:34:25;;;;;;;2.55;2.35;;;6.80;99.90;;;;;;4956588;28;20212;-62
2023/04/02 18:37:06;;;;;;;1.95;1.85;;;6.80;99.90;;;;;;4958181;28;20202;-63
2023/04/02 18:39:41;;;;;;;3.65;2.90;;;6.80;99.90;;;;;;4960646;28;20173;-62
2023/04/02 18:42:17;;;;;;;2.78;2.58;;;6.80;99.90;;;;;;4959837;28;20183;-64
2023/04/02 18:45:06;;;;;;;2.90;2.55;;;6.70;99.90;;;;;;4957703;28;20223;-62